Godstone, United Kingdom
Current Conditions -  °F | °C
As of 1:20 PM on Wednesday 22 Oct 2014 (Local Time) from EGKB Reporting Station
Few Clouds Few Clouds  
Wind Chill: 54°   Ceiling: Unl
Heat Index: 54°   Visibility: 6mi
Dew Point: 39°   Wind: 12mph
Humidity: 58%   Direction: 290°WNW
Pressure: 30.27"   Gusts: NA
Location:  51.25°N, 0.07°W
Report Text: EGKB 221220Z 29010KT 250V320 9999 FEW035 12/04 Q1025
Loading
Personal Weather Stations






























Interactive Weather Map
Tropical Storm Tracking
New forecast layout! Learn more

10-Day Weather Forecast

Advertisements
Track Severe Weather on mobile